Hauptseite
METAR-TAF:

METAR-TAF

Flughäfen :

Plzeň, Tschechien

Breite: 49-40-31N, Länge: 13-16-29E, Höhe: 362 m

Beobachtung

Neuester Wetterbericht von vor 1 Stunde und 12 Minuten, um 23:00 UTC
Wind 12 kt aus West, Böen bis zu 22 kt, variierte zwischen Südwest und Nordwest
Temperatur 2°C
Luftfeuchtigkeit 69%
Luftdruck 1008 hPa
Sichtweite 10 km oder mehr
Leicht bewölkt in der Höhe von 4700 ft
Durchbrochene Bewölkung in der Höhe von 8900 ft
Schnee leicht

METAR: LKLN 172300Z AUTO 27012G22KT 220V320 9999 -SN FEW047 BKN089 02/M03 Q1008

Zeit: 01:12 (00:12 UTC)


TAF: fehlend

Wetterbeobachtungen und Prognosen von mehr als 4000 Flughäfen (METAR und TAF Bericht).

Die verfügbaren Stationen werden durch gelbe und rote Markierungen auf der Karte dargestellt.

Führen Sie die Maus auf sie, um den Namen der Station zu sehen.

Darauf klicken, um die Beobachtung von Wetterbeobachtungen und Prognosen zu sehen.

Um die Karte zu ändern : klicken Sie auf den grünen Tasten mit einem schwarzen Kreuz Zum Vergrößern, auf den grünen Button mit einem Gedankenstrich zu verkleinern, oder auf die grünen Pfeile für benachbarte Karten.


METAR-TAF: